• Join FlightAware (Why Join?)
  • Login
  • US Flag 
Rudolph Flight #1: Arrived! 
09:10AM EST


 

Airport Tracker/Info


-or-


 

Live Flight TrackerFlight Track Log ✈ SIA916 ✈ 14-May-2013 ✈ WSSS / SIN - RPLL / MNL

Flight Track Log - Related Links

Times and Time Zones

All times are in EDT time to prevent confusion due to time zone crossing. See the SIA916 flight status page for this flight to view local times or setup timezone preferences in your user account.

Time Position Orientation Groundspeed Altitude Reporting Facility
EDT Latitude Longitude Course Direction KTS MPH feet Rate Location/Type
02:46AM 1.3330 103.9870 203° Southwest 147 169 900  Level FlightAware
02:46AM 1.3180 103.9800 205° Southwest 144 166 1,900 1,560 Climbing FlightAware
02:46AM 1.3020 103.9730 204° Southwest 172 198 2,200 780 Climbing FlightAware
02:47AM 1.2850 103.9670 199° South 196 226 2,500 1,020 Climbing FlightAware
02:47AM 1.2640 103.9780 152° Southeast 229 264 3,000 1,500 Climbing FlightAware
02:47AM 1.2570 103.9930 115° Southeast 249 287 3,500 2,100 Climbing FlightAware
02:48AM 1.2500 104.0290 101° East 270 311 4,600 2,160 Climbing FlightAware
02:48AM 1.2480 104.0550 94° East 283 326 5,300 2,040 Climbing FlightAware
02:49AM 1.2540 104.0940 81° East 304 350 6,300 1,680 Climbing FlightAware
02:49AM 1.2650 104.1370 76° East 334 384 7,000 1,860 Climbing FlightAware
02:50AM 1.2760 104.1840 77° East 345 397 8,200 2,460 Climbing FlightAware
02:50AM 1.2860 104.2240 76° East 351 404 9,300 2,400 Climbing FlightAware
02:51AM 1.3030 104.2940 76° East 363 418 11,000 2,400 Climbing FlightAware
02:52AM 1.3190 104.3590 76° East 363 418 12,700 2,160 Climbing FlightAware
02:52AM 1.3310 104.4250 80° East 373 429 13,900 900 Climbing FlightAware
02:53AM 1.3330 104.5050 89° East 369 425 14,000 60 Climbing FlightAware
02:54AM 1.3340 104.5730 89° East 371 427 14,000  Level FlightAware
02:54AM 1.3360 104.6470 88° East 366 421 14,000 300 Level FlightAware
02:55AM 1.3380 104.7170 88° East 369 425 14,500 1,320 Climbing FlightAware
02:56AM 1.3390 104.7860 89° East 379 436 15,800 1,920 Climbing FlightAware
02:57AM 1.3410 104.8650 89° East 387 445 17,300 1,920 Climbing FlightAware
02:57AM 1.3430 104.9390 88° East 393 452 18,600 1,860 Climbing FlightAware
02:58AM 1.3450 105.0110 88° East 400 460 19,800 1,740 Climbing FlightAware
02:59AM 1.3470 105.0950 89° East 406 467 21,100 1,680 Climbing FlightAware
02:59AM 1.3480 105.1600 89° East 409 471 22,100 1,680 Climbing FlightAware
03:00AM 1.3500 105.2560 89° East 411 473 23,500 1,620 Climbing FlightAware
03:01AM 1.3520 105.3340 89° East 414 476 24,600 1,440 Climbing FlightAware
03:01AM 1.3540 105.4170 89° East 418 481 25,600 1,200 Climbing FlightAware
03:02AM 1.3580 105.4960 87° East 423 487 26,300 1,020 Climbing FlightAware
03:03AM 1.3760 105.5470 71° East 426 490 26,800 1,080 Climbing FlightAware
03:03AM 1.4300 105.6010 45° Northeast 433 498 27,600 1,080 Climbing FlightAware
03:04AM 1.4990 105.6510 36° Northeast 438 504 28,300 1,020 Climbing FlightAware
03:05AM 1.5760 105.7060 36° Northeast 446 513 29,100 1,020 Climbing FlightAware
03:05AM 1.6420 105.7530 35° Northeast 451 519 29,800 960 Climbing FlightAware
03:06AM 1.7000 105.7950 36° Northeast 456 525 30,300 660 Climbing FlightAware
03:07AM 1.8020 105.8670 35° Northeast 461 531 30,900 1,080 Climbing FlightAware
03:08AM 1.8950 105.9340 36° Northeast 467 537 32,300 1,620 Climbing FlightAware
03:08AM 1.9630 105.9820 35° Northeast 463 533 33,400 1,680 Climbing FlightAware
03:09AM 2.0600 106.0510 35° Northeast 454 522 35,000 1,560 Climbing FlightAware
03:10AM 2.1380 106.1070 36° Northeast 454 522 36,000 1,380 Climbing FlightAware
03:11AM 2.2060 106.1560 36° Northeast 450 518 37,000 1,380 Climbing FlightAware
03:12AM 2.2830 106.2100 35° Northeast 447 514 38,000 1,260 Climbing FlightAware
03:12AM 2.3510 106.2590 36° Northeast 447 514 38,800 1,080 Climbing FlightAware
03:13AM 2.4190 106.3070 35° Northeast 446 513 39,500 840 Climbing FlightAware
03:14AM 2.4910 106.3590 36° Northeast 442 509 40,000 300 Climbing FlightAware
03:14AM 2.5610 106.4070 34° Northeast 444 511 40,000  Level FlightAware
03:15AM 2.6440 106.4510 28° Northeast 446 513 40,000  Level FlightAware
03:16AM 2.7450 106.5030 27° Northeast 449 517 40,000  Level FlightAware
03:17AM 2.8170 106.5410 28° Northeast 448 516 40,000  Level FlightAware
03:17AM 2.9000 106.5830 27° Northeast 449 517 40,000  Level FlightAware
03:18AM 2.9650 106.6170 28° Northeast 450 518 40,000  Level FlightAware
03:19AM 3.0430 106.6710 35° Northeast 442 509 40,000  Level FlightAware
03:20AM 3.1200 106.7470 45° Northeast 444 511 40,000  Level FlightAware
03:20AM 3.1920 106.8150 43° Northeast 445 512 40,000  Level FlightAware
03:21AM 3.2490 106.8660 42° Northeast 444 511 40,000  Level FlightAware
03:22AM 3.3210 106.9300 42° Northeast 444 511 40,000  Level FlightAware
03:22AM 3.3770 106.9810 42° Northeast 446 513 40,000  Level FlightAware
03:23AM 3.4440 107.0410 42° Northeast 448 516 40,000  Level FlightAware
03:24AM 3.5090 107.1000 42° Northeast 448 516 40,000  Level FlightAware
03:24AM 3.5590 107.1450 42° Northeast 448 516 40,000  Level FlightAware
03:25AM 3.6240 107.2040 42° Northeast 448 516 40,000  Level FlightAware
03:26AM 3.7050 107.2780 42° Northeast 447 514 40,000  Level FlightAware
03:27AM 3.7730 107.3390 42° Northeast 447 514 40,000  Level FlightAware
03:27AM 3.8280 107.3890 42° Northeast 447 514 40,000  Level FlightAware
03:28AM 3.8810 107.4360 42° Northeast 447 514 40,000  Level FlightAware
03:29AM 3.9330 107.4830 42° Northeast 447 514 40,000  Level FlightAware
03:29AM 3.9850 107.5300 42° Northeast 447 514 40,000  Level FlightAware
03:30AM 4.0510 107.5890 42° Northeast 447 514 40,000  Level FlightAware
03:31AM 4.1030 107.6370 43° Northeast 447 514 40,000  Level FlightAware
03:32AM 4.1550 107.6840 42° Northeast 447 514 40,000  Level FlightAware
03:32AM 4.2070 107.7310 42° Northeast 447 514 40,000  Level FlightAware
03:33AM 4.2600 107.7780 41° Northeast 447 514 40,000  Level FlightAware
03:34AM 4.3250 107.8370 42° Northeast 447 514 40,000  Level FlightAware
03:34AM 4.3770 107.8840 42° Northeast 447 514 40,000  Level FlightAware
03:35AM 4.4290 107.9310 42° Northeast 447 514 40,000  Level FlightAware
03:36AM 4.4820 107.9790 42° Northeast 447 514 40,000  Level FlightAware
03:36AM 4.5340 108.0260 42° Northeast 447 514 40,000  Level FlightAware
03:39AM 4.6867 108.2164 51° Northeast  Level Estimated
03:40AM 4.7583 108.3057 51° Northeast  Level Estimated
03:41AM 4.8298 108.3950 51° Northeast  Level Estimated
03:42AM 4.9014 108.4844 51° Northeast  Level Estimated
03:43AM 4.9729 108.5737 51° Northeast  Level Estimated
03:44AM 5.0444 108.6631 51° Northeast  Level Estimated
03:45AM 5.1159 108.7525 51° Northeast  Level Estimated
03:46AM 5.1874 108.8419 51° Northeast  Level Estimated
03:47AM 5.2589 108.9313 51° Northeast  Level Estimated
03:48AM 5.3303 109.0208 51° Northeast  Level Estimated
03:49AM 5.4018 109.1102 51° Northeast  Level Estimated
03:50AM 5.4732 109.1997 51° Northeast  Level Estimated
03:51AM 5.5447 109.2892 51° Northeast  Level Estimated
03:52AM 5.6161 109.3788 51° Northeast  Level Estimated
03:53AM 5.6875 109.4683 51° Northeast  Level Estimated
03:54AM 5.7589 109.5579 51° Northeast  Level Estimated
03:55AM 5.8302 109.6475 51° Northeast  Level Estimated
03:56AM 5.9016 109.7371 51° Northeast  Level Estimated
03:57AM 5.9729 109.8267 51° Northeast  Level Estimated
03:58AM 6.0443 109.9164 51° Northeast  Level Estimated
03:59AM 6.1156 110.0061 51° Northeast  Level Estimated
04:00AM 6.1869 110.0958 51° Northeast  Level Estimated
04:01AM 6.2582 110.1855 51° Northeast  Level Estimated
04:02AM 6.3294 110.2753 51° Northeast  Level Estimated
04:03AM 6.4007 110.3651 51° Northeast  Level Estimated
04:04AM 6.4719 110.4549 51° Northeast  Level Estimated
04:05AM 6.5431 110.5447 51° Northeast  Level Estimated
04:06AM 6.6143 110.6346 51° Northeast  Level Estimated
04:07AM 6.6855 110.7245 51° Northeast  Level Estimated
04:08AM 6.7567 110.8144 51° Northeast  Level Estimated
04:09AM 6.8279 110.9044 51° Northeast  Level Estimated
04:10AM 6.8990 110.9943 51° Northeast  Level Estimated
04:11AM 6.9701 111.0843 51° Northeast  Level Estimated
04:12AM 7.0412 111.1743 51° Northeast  Level Estimated
04:13AM 7.1123 111.2644 51° Northeast  Level Estimated
04:14AM 7.1834 111.3545 52° Northeast  Level Estimated
04:15AM 7.2545 111.4446 52° Northeast  Level Estimated
04:16AM 7.3255 111.5347 52° Northeast  Level Estimated
04:17AM 7.3965 111.6249 52° Northeast  Level Estimated
04:18AM 7.4675 111.7151 52° Northeast  Level Estimated
04:19AM 7.5385 111.8053 52° Northeast  Level Estimated
04:20AM 7.6095 111.8955 52° Northeast  Level Estimated
04:21AM 7.6804 111.9858 52° Northeast  Level Estimated
04:22AM 7.7513 112.0761 52° Northeast  Level Estimated
04:23AM 7.8222 112.1665 52° Northeast  Level Estimated
04:24AM 7.8931 112.2568 52° Northeast  Level Estimated
04:25AM 7.9640 112.3472 52° Northeast  Level Estimated
04:26AM 8.0349 112.4377 52° Northeast  Level Estimated
04:27AM 8.1057 112.5282 52° Northeast  Level Estimated
04:28AM 8.1765 112.6187 52° Northeast  Level Estimated
04:29AM 8.2473 112.7092 52° Northeast  Level Estimated
04:30AM 8.3181 112.7997 52° Northeast  Level Estimated
04:31AM 8.3888 112.8903 52° Northeast  Level Estimated
04:32AM 8.4595 112.9810 52° Northeast  Level Estimated
04:33AM 8.5302 113.0716 52° Northeast  Level Estimated
04:34AM 8.6009 113.1623 52° Northeast  Level Estimated
04:35AM 8.6716 113.2531 52° Northeast  Level Estimated
04:36AM 8.7423 113.3438 52° Northeast  Level Estimated
04:37AM 8.8129 113.4346 52° Northeast  Level Estimated
04:38AM 8.8835 113.5255 52° Northeast  Level Estimated
04:39AM 8.9541 113.6163 52° Northeast  Level Estimated
04:40AM 9.0246 113.7072 52° Northeast  Level Estimated
04:41AM 9.0951 113.7982 52° Northeast  Level Estimated
04:42AM 9.1657 113.8891 52° Northeast  Level Estimated
04:43AM 9.2361 113.9801 52° Northeast  Level Estimated
04:44AM 9.3066 114.0712 52° Northeast  Level Estimated
04:45AM 9.3771 114.1623 52° Northeast  Level Estimated
04:46AM 9.4475 114.2534 52° Northeast  Level Estimated
04:47AM 9.5179 114.3446 52° Northeast  Level Estimated
04:48AM 9.5882 114.4358 52° Northeast  Level Estimated
04:49AM 9.6586 114.5270 52° Northeast  Level Estimated
04:50AM 9.7289 114.6183 52° Northeast  Level Estimated
04:51AM 9.7992 114.7096 52° Northeast  Level Estimated
04:52AM 9.8695 114.8009 52° Northeast  Level Estimated
04:53AM 9.9397 114.8923 52° Northeast  Level Estimated
04:54AM 10.0100 114.9837 52° Northeast  Level Estimated
04:55AM 10.0802 115.0752 52° Northeast  Level Estimated
04:56AM 10.1503 115.1667 52° Northeast  Level Estimated
04:57AM 10.2205 115.2583 52° Northeast  Level Estimated
04:58AM 10.2906 115.3499 52° Northeast  Level Estimated
04:59AM 10.3607 115.4415 52° Northeast  Level Estimated
05:00AM 10.4308 115.5332 52° Northeast  Level Estimated
05:01AM 10.5008 115.6249 52° Northeast  Level Estimated
05:02AM 10.5709 115.7166 52° Northeast  Level Estimated
05:03AM 10.6409 115.8084 52° Northeast  Level Estimated
05:04AM 10.7108 115.9003 52° Northeast  Level Estimated
05:05AM 10.7808 115.9921 52° Northeast  Level Estimated
05:06AM 10.8507 116.0841 52° Northeast  Level Estimated
05:07AM 10.9206 116.1760 52° Northeast  Level Estimated
05:08AM 10.9904 116.2680 52° Northeast  Level Estimated
05:09AM 11.0603 116.3601 52° Northeast  Level Estimated
05:10AM 11.1301 116.4522 52° Northeast  Level Estimated
05:11AM 11.1998 116.5443 52° Northeast  Level Estimated
05:12AM 11.2696 116.6365 52° Northeast  Level Estimated
05:13AM 11.3393 116.7287 52° Northeast  Level Estimated
05:14AM 11.4090 116.8210 52° Northeast  Level Estimated
05:15AM 11.4787 116.9133 52° Northeast  Level Estimated
05:16AM 11.5483 117.0057 52° Northeast  Level Estimated
05:17AM 11.6179 117.0981 52° Northeast  Level Estimated
05:18AM 11.6875 117.1905 52° Northeast  Level Estimated
05:19AM 11.7570 117.2830 52° Northeast  Level Estimated
05:20AM 11.8265 117.3756 52° Northeast  Level Estimated
05:21AM 11.8960 117.4682 53° Northeast  Level Estimated
05:22AM 11.9654 117.5608 53° Northeast  Level Estimated
05:23AM 12.0349 117.6535 53° Northeast  Level Estimated
05:24AM 12.1042 117.7462 53° Northeast  Level Estimated
05:25AM 12.1736 117.8390 53° Northeast  Level Estimated
05:26AM 12.2429 117.9319 53° Northeast  Level Estimated
05:27AM 12.3122 118.0248 53° Northeast  Level Estimated
05:28AM 12.3815 118.1177 53° Northeast  Level Estimated
05:29AM 12.4508 118.2107 53° Northeast  Level Estimated
05:30AM 12.5200 118.3037 53° Northeast  Level Estimated
05:31AM 12.5891 118.3968 53° Northeast  Level Estimated
05:32AM 12.6583 118.4899 53° Northeast  Level Estimated
05:33AM 12.7274 118.5831 53° Northeast  Level Estimated
05:34AM 12.7965 118.6763 53° Northeast  Level Estimated
05:35AM 12.8655 118.7696 53° Northeast  Level Estimated
05:36AM 12.9345 118.8629 53° Northeast  Level Estimated
05:37AM 13.0035 118.9563 53° Northeast  Level Estimated
05:38AM 13.0724 119.0498 53° Northeast  Level Estimated
05:39AM 13.1413 119.1433 53° Northeast  Level Estimated
05:40AM 13.2102 119.2368 53° Northeast  Level Estimated
05:41AM 13.2791 119.3304 53° Northeast  Level Estimated
05:42AM 13.3479 119.4240 53° Northeast  Level Estimated
05:43AM 13.4166 119.5178 53° Northeast  Level Estimated
05:44AM 13.4854 119.6115 53° Northeast  Level Estimated
05:45AM 13.5541 119.7053 53° Northeast  Level Estimated
05:46AM 13.6228 119.7992 53° Northeast  Level Estimated
05:47AM 13.6914 119.8931 53° Northeast  Level Estimated
05:48AM 13.7600 119.9871 53° Northeast  Level Estimated
05:49AM 13.8286 120.0811 53° Northeast  Level Estimated
05:50AM 13.8971 120.1752 53° Northeast  Level Estimated
05:51AM 13.9656 120.2693 53° Northeast  Level Estimated
05:52AM 14.0340 120.3635 53° Northeast  Level Estimated
05:53AM 14.1025 120.4578 53° Northeast  Level Estimated
05:54AM 14.1708 120.5521 53° Northeast  Level Estimated
05:55AM 14.2392 120.6465 53° Northeast  Level Estimated
05:56AM 14.3075 120.7409 53° Northeast  Level Estimated
05:57AM 14.3758 120.8354 53° Northeast  Level Estimated
05:58AM 14.4440 120.9299 53° Northeast  Level Estimated
05:59AM 14.5086 121.0196 53° Northeast  Level Estimated
06:00AM 14.5086 121.0196 162° South  Level Estimated
06:01AM 14.5086 121.0196 162° South  Level Estimated
06:02AM 14.5086 121.0196 162° South  Level Estimated
06:03AM 14.5086 121.0196 162° South  Level Estimated
06:04AM 14.5086 121.0196 162° South  Level Estimated
06:05AM 14.5086 121.0196 162° South  Level Estimated
06:06AM 14.5086 121.0196 162° South  Level Estimated
06:07AM 14.5086 121.0196 162° South  Level Estimated
06:08AM 14.5086 121.0196 162° South  Level Estimated